»·PEaware :: AAL564A KBUR-KLAS

AAL564A :: KBUR-KLAS

FLIGHT INFORMATION

Flight Status: Arrived
Operator:
American Airlines
More flights by this operator :: More flights under this callsign
Pilot: Adam H. (32152)
Aircraft: AIRBUS A321
(A321)
More flights by this aircraft type
Origin: KBUR Bob Hope-Burbank
United States
Destination: KLAS McCarran Intl
United States
More flights between these airports :: More routes between these airports
Route: +SLAPP2 MISEN KEPEC6
File this flight plan on PilotEdge
Remarks:
Altitude:
(Current/Filed)
29,000ft
Speed:
(Current/Filed)
453kts
Departed: 12-Nov-20 07:42 PM
Arrived: 12-Nov-20 08:24 PM
Distance/Time
Traveled:
194nm/0:42
Distance/Time
To Go:
Arrived

Flight Plot

Page will automatically refresh every two minutes.

Flight plan parsing failed; only flown route is shown


Map Options




Map Legend


Flown Route
Filed Route
Departure Airport
Arrival Airport
Navaid (VOR, NDB)
Fix

Horizontal Profiles

Position Reports

Time Latitude Longitude Heading Altitude Ground
Speed
12-Nov-20 19:22 34.196817 -118.351530 179 701ft 0kts
12-Nov-20 19:23 34.196817 -118.351530 179 701ft 0kts
12-Nov-20 19:24 34.196817 -118.351530 179 701ft 0kts
12-Nov-20 19:25 34.196817 -118.351530 179 701ft 0kts
12-Nov-20 19:26 34.196817 -118.351530 179 701ft 0kts
12-Nov-20 19:27 34.196817 -118.351530 179 701ft 0kts
12-Nov-20 19:28 34.196817 -118.351530 179 701ft 0kts
12-Nov-20 19:29 34.196817 -118.351530 179 701ft 0kts
12-Nov-20 19:30 34.196817 -118.351530 179 701ft 0kts
12-Nov-20 19:31 34.196817 -118.351530 179 701ft 0kts
12-Nov-20 19:32 34.196906 -118.351522 182 701ft 2kts
12-Nov-20 19:33 34.197174 -118.351072 271 700ft 1kts
12-Nov-20 19:34 34.197174 -118.351059 271 700ft 0kts
12-Nov-20 19:35 34.197174 -118.351059 271 700ft 0kts
12-Nov-20 19:36 34.197192 -118.352106 271 703ft 13kts
12-Nov-20 19:37 34.201568 -118.356144 347 721ft 31kts
12-Nov-20 19:38 34.209748 -118.358549 305 753ft 9kts
12-Nov-20 19:39 34.209780 -118.358644 280 754ft 0kts
12-Nov-20 19:40 34.209780 -118.358644 280 754ft 0kts
12-Nov-20 19:41 34.203680 -118.358073 168 734ft 117kts
12-Nov-20 19:42 34.157888 -118.366673 222 3552ft 213kts
12-Nov-20 19:43 34.116098 -118.429956 276 4006ft 262kts
12-Nov-20 19:44 34.174045 -118.461000 20 6757ft 276kts
12-Nov-20 19:45 34.248056 -118.427070 18 9656ft 293kts
12-Nov-20 19:46 34.330532 -118.391166 17 11307ft 347kts
12-Nov-20 19:47 34.429692 -118.347120 20 12444ft 412kts
12-Nov-20 19:48 34.528166 -118.267654 38 14855ft 436kts
12-Nov-20 19:49 34.623336 -118.171434 38 17192ft 452kts
12-Nov-20 19:50 34.681545 -118.037623 79 18992ft 469kts
12-Nov-20 19:51 34.697148 -117.879687 87 20008ft 478kts
12-Nov-20 19:52 34.706160 -117.716190 88 21810ft 492kts
12-Nov-20 19:53 34.712817 -117.548303 85 23076ft 503kts
12-Nov-20 19:54 34.744095 -117.390999 71 23092ft 503kts
12-Nov-20 19:56 34.787699 -117.229213 72 23092ft 502kts
12-Nov-20 19:57 34.829857 -117.069480 72 23092ft 501kts
12-Nov-20 19:58 34.872140 -116.908374 72 23100ft 501kts
12-Nov-20 19:59 34.916087 -116.746690 66 23102ft 502kts
12-Nov-20 20:00 34.988995 -116.602901 53 23102ft 500kts
12-Nov-20 20:01 35.068303 -116.463600 54 23102ft 500kts
12-Nov-20 20:02 35.157133 -116.333836 44 22828ft 489kts
12-Nov-20 20:03 35.251456 -116.216163 44 21228ft 482kts
12-Nov-20 20:04 35.343208 -116.100789 44 18935ft 463kts
12-Nov-20 20:05 35.430791 -115.990227 44 16642ft 443kts
12-Nov-20 20:06 35.507879 -115.892583 44 14601ft 360kts
12-Nov-20 20:07 35.572647 -115.810446 43 13712ft 325kts
12-Nov-20 20:08 35.635187 -115.730874 43 13233ft 323kts
12-Nov-20 20:09 35.697378 -115.651502 43 13020ft 322kts
12-Nov-20 20:10 35.762598 -115.577320 16 13012ft 316kts
12-Nov-20 20:11 35.848106 -115.570012 357 13018ft 309kts
12-Nov-20 20:12 35.934102 -115.565445 358 13009ft 309kts
12-Nov-20 20:12 35.988480 -115.514644 69 12353ft 325kts
12-Nov-20 20:14 36.024290 -115.395392 69 10991ft 305kts
12-Nov-20 20:14 36.026672 -115.313500 97 10352ft 280kts
12-Nov-20 20:16 36.018328 -115.204977 96 8998ft 264kts
12-Nov-20 20:17 36.012451 -115.118418 96 7725ft 252kts
12-Nov-20 20:17 36.007193 -115.045631 95 5593ft 258kts
12-Nov-20 20:19 36.027501 -114.966371 13 4216ft 175kts
12-Nov-20 20:19 36.059377 -114.986970 309 3317ft 163kts
12-Nov-20 20:20 36.075378 -115.036166 267 2356ft 150kts
12-Nov-20 20:21 36.074121 -115.088248 268 2288ft 151kts
12-Nov-20 20:22 36.073623 -115.139774 270 2085ft 126kts
12-Nov-20 20:23 36.074530 -115.154785 303 2138ft 0kts
12-Nov-20 20:24 36.075355 -115.156227 313 2142ft 0kts
12-Nov-20 20:25 36.075859 -115.156824 316 2143ft 9kts
12-Nov-20 20:26 36.077239 -115.158205 350 2145ft 0kts
12-Nov-20 20:27 36.078064 -115.155404 92 2133ft 23kts
12-Nov-20 20:28 36.078414 -115.146315 85 2098ft 26kts
12-Nov-20 20:29 36.079675 -115.137242 18 2068ft 23kts
12-Nov-20 20:30 36.080569 -115.136516 47 2064ft 0kts

Navigation Log

Ident Type
Flight plan parsing failed, navigation log unavailable